Location:  
MeteoStar


Sort by weather type Sort by elevation Sort by visibility Sort from west to east north Sort from north to south Alphabetically Sort from strongest wind speed Sort from lowest to highest pressure Sort from highest to lowest dew point temperature Sort coolest temperatures to warmest Sort warm temperatures to coolest
 Metric

Current Observations for United Kingdom sorted by highst dew point temperature

Saint Helena Island02:50ZNot Avail.68 6571015.5ESE 7 681427
Culdrose02:50ZPartly Cloudy46 45181005.2W 8 42255
Isle Of Portland03:00ZHaze46 4471007.4S 20 Gusting to 27 38173
Mumbles03:00ZNot Avail.46 44151006.2SSE 10 41114
Milford Haven03:00ZNot Avail.46 44151004.2SSW 7 42144
Scilly; Saint MaryS03:00ZClear48 44301006.2W 13 43101
Exeter Airport02:20ZRain43 4361006.2SSE 4 4198
Guernsey Airport02:50ZShowers nearby45 43151008.3S 11 39334
Cardiff-Wales Airport02:20ZLight Rain43 4341006.2ESE 9 38219
Yeovilton02:50ZRain43 4351007.2SE 4 4175
St Athan Royal Air Force Base02:50ZLight Rain43 4331005.2ESE 7 39164
Belfast / Harbour02:20ZMostly Cloudy45 4381003.1SE 6 4216
Ballypatrick Forest03:00ZClear43 42131004.2S 5 40511
Camborne03:00ZCloudy43 42151006.0SSW 5 40285
Aberdaron03:00ZNot Avail.43 4261005.0SSE 17 35311
Aberporth03:00ZLight Rain43 42141004.2S 11 37436
Chivenor03:00ZRain43 4291005.9E 6 3926
Portglenone03:00ZNot Avail.43 4171003.0E 6 39209
Dunkeswell Aerodrome03:00ZLight Showers42 4171006.5S 5 39826
Isle Of Man / Ronaldsway Airport02:50ZMostly Cloudy45 41201004.1SE 12 3955
Jersey Airport02:20ZCloudy41 4161009.3SSE 12 34275
Bristol / Lulsgate 02:20ZCloudy41 4141006.5SE 11 34620
Belfast / Aldergrove Airport02:20ZMostly Cloudy43 4181003.3SE 3 43265
Castlederg03:00ZNot Avail.42 40251002.9ESE 2 42167
Thorney Island03:00ZLight Showers41 4021009.9SSE 15 3313
Saint Catherines Point03:00ZNot Avail.43 4071009.0S 11 Gusting to 21 3752
Liscombe03:00ZNot Avail.40 400.061006.4S 5 361141
Machrihanish03:00ZNot Avail.42 4031004.7SE 15 3442
Bournemouth Airport03:00ZClear42 40121008.5SSE 11 3636
Glenanne03:00ZNot Avail.40 3971003.2SW 2 40528
Larkhill03:00ZNot Avail.39 3921008.7ESE 7 34433
Trawscoed03:00ZLight Rain42 39141005.2ESE 11 36206
Middle Wallop02:50ZCloudy39 392.51008.3SE 10 32298
West Freugh03:00ZRain/Drizzle41 3961005.5ESE 17 3336
Valley02:50ZMostly Cloudy43 39301004.1SSE 12 373
Boscombe Down02:50ZRain39 3921008.4SE 8 33406
Shobdon03:00ZNot Avail.38 3871007.5ESE 5 34324
Sennybridge03:00ZLight Showers38 381.871006.2SSE 11 311007
Lyneham03:00ZNot Avail.39 3891008.2SSE 13 31475
Pershore03:00ZClear40 37121008.5SE 9 34104
South Uist Range03:00ZNot Avail.41 37201005.2SE 10 3532
Tiree02:20ZMostly Cloudy41 37121004.1ESE 19 3239
Benbecula02:20ZCloudy41 3741005.1ESE 8 3619
Capel Curig03:00ZClear40 36251006SSE 8 35708
Bridlington Mrsc03:00ZNot Avail.39 36131010.4S 22 Gusting to 26 2949
Odiham02:50ZLight Drizzle39 3651009.4SSE 12 32403
Brize Norton02:50ZMostly Cloudy39 36151008.3SE 7 34288
Fairford Royal Air Force Base02:56ZCloudy40 3681008.7SSE 9 Gusting to 17 34285
Mildenhall Royal Air Force Base02:56ZCloudy36 3681011.5SSE 9 2932
Benson02:50ZMostly Cloudy37 36151009.3SE 12 29206
Prestwick Airport02:50ZMostly Cloudy37 3641006.2N 2 3765
Aberdeen / Dyce02:20ZLight Rain37 3661008.3S 6 32213
Wick02:20ZLight Rain39 36201008.2S 13 31127
Kirkwall Airport02:20ZPartly Cloudy41 36191008.2S 9 3568
Shawbury02:50ZCloudy37 36141007.3ESE 8 31249
Little Rissington03:00ZNot Avail.37 35121008.7SE 11 29705
Rhyl03:00ZNot Avail.38 35251006.0SSE 7 33252
Dundrennan03:00ZLight Rain36 352.251006.2E 6 31374
Inverbervie03:00ZNot Avail.38 3571007.9S 11 31439
Hawarden03:00ZNot Avail.37 35191007.2SSE 8 3132
Walney Island03:00ZNot Avail.38 35201007.2ESE 12 3049
Shoreham Airport03:00ZNot Avail.41 3561011SSE 13 346
Church Lawford03:00ZRain36 3461009.4SSE 6 31351
Crosby03:00ZNot Avail.38 34201006.7SE 12 3026
Prestwick Rnas03:00ZNot Avail.37 34101006.0NE 4 3485
Sule Skerry03:00ZNot Avail.41 34251007.2SE 17 3352
Wainfleet03:00ZNot Avail.37 3491011.7SSE 16 289
Topcliffe Royal Air Force Base 02:50ZLight Drizzle36 3431009.2SE 11 2891
Leeming02:50ZMist36 3451009.2SE 10 29131
Glasgow Airport02:20ZCloudy36 3441007.1ENE 8 3026
East Midlands02:20ZLight Rain36 34201009.3SSE 12 28308
Blackpool Airport03:00ZNot Avail.37 3415SE 12 2932
Lydd Airport 02:20ZMostly Cloudy39 34151013.1S 15 319
Farnborough03:00ZNot Avail.39 34151010.2SE 8 33213
Liverpool Airport 02:20ZCloudy39 3441007.2SE 9 3385
Birmingham / Airport02:20ZLight Rain36 3481008.3SSE 8 30324
Shoeburyness03:00ZNot Avail.37 3391012.7SSE 13 296
Donna Nook03:00ZNot Avail.37 33131011.2SSE 13 2926
Nottingham Weather Centre03:00ZLight Rain35 3371009.9SSE 7 29383
Bingley03:00ZLight Snow Showers33 3341008.7SE 7 27859
Shap03:00ZNot Avail.34 3351008.2SSE 4 30816
Carlisle03:00ZNot Avail.36 33201007.2N 3691
Keswick03:00ZNot Avail.37 33121007.7E 7 32265
Saint Bees Head03:00ZNot Avail.36 33121006.5SE 16 26406
Drumalbin03:00ZNot Avail.35 33111007.2ESE 5 31803
Lerwick03:00ZClear37 33201011NNE 2 37269
Langdon Bay03:00ZNot Avail.36 32201013.5S 16 Gusting to 26 26383
High Wicombe Hqstc03:00ZLight Showers35 3281010.4SE 9 28669
Fylingdales03:00ZNot Avail.32 3213SSE 13 22859
Loftus Samos03:00ZNot Avail.34 32131009.2S 19 Gusting to 28 23190
Warcop Range03:00ZNot Avail.35 32251008.0SE 5 31744
Eskdalemuir03:00ZMist33 3231008.0N 2 33793
Strathallan03:00ZClear33 321.51008.4SW 1 33114
Marham02:50ZPartly Cloudy34 3271012.2SE 10 2675
Holbeach03:00ZNot Avail.35 32101011.5SSE 11 279
Waddington02:50ZMostly Cloudy34 32141010.3SSE 13 25223
Leconfield02:50ZMostly Cloudy37 321.251010.1S 8 3119
Linton-On-Ouse02:50ZMostly Cloudy34 321.251009.2SE 6 2952
Coningsby Royal Air Force Base02:50ZCloudy36 32151011.1SSE 9 2922
Northolt02:50ZMostly Cloudy37 32161010.2SE 8 31124
Wattisham02:50ZMostly Cloudy36 3281012.3S 9 29285
Manston03:00ZNot Avail.36 3281013.7SSE 13 27180
Norwich Weather Centre02:20ZClear34 3271013.2SSE 7 2845
Boulmer02:50ZMostly Cloudy36 3271008.2S 9 2975
Leuchars02:50ZMist32 3241008.1S 1 3239
Stornoway02:20ZClear34 3291006.1CALM3429
Scatsa / Shetland Island02:20ZClear36 3241011.2SSE 12 2872
Edinburgh Airport02:20ZCloudy36 3241007.2ENE 2 36134
Newcastle 02:50ZMostly Cloudy36 32201008.3S 7 30265
Leeds And Bradford02:20ZLight Snow32 320.751008.7SSE 9 24682
Humberside02:20ZCloudy37 32151010.2S 18 27101
Southend-On-Sea 02:50ZNot Avail.37 32151012.2SSE 12 2949
London / Heathrow Airport02:20ZClear37 32151011.2SE 9 3078
London / Gatwick Airport02:20ZNot Avail.37 3261011.3SE 7 32203
Manchester Airport02:20ZCloudy37 3281008.3N 5 33226
Herstmonceux03:00ZNot Avail.38 31151012.0S 8 32170
Weybourne03:00ZNot Avail.34 3191012.7SSE 10 2668
Redesdale03:00ZNot Avail.33 3141008.5SE 5 28692
Spadeadam03:00ZMist32 3141007.9ENE 5 27935
Charterhall03:00ZNot Avail.34 3181008SW 4 30367
Aboyne03:00ZMist32 3161008.2WSW 2 32459
Baltasound03:00ZClear35 31201011.5S 7 2949
Kenley03:00ZNot Avail.35 30201011.2SSE 8 28557
Bedford03:00ZNot Avail.35 30251010.7SSE 12 27278
Aultbea03:00ZNot Avail.35 30251006.5SSE 5 3136
Fair Isle03:00ZNot Avail.41 30251010.2SSE 12 34187
Cranwell02:50ZMostly Cloudy34 30141010.3SE 10 26219
Wittering02:50ZPartly Cloudy36 30181010.3SSE 8 30275
Lakenheath Royal Air Force Base02:56ZClear35 30141011.9SE 6 3032
Stansted Airport02:20ZClear34 3071011.4SE 10 26347
Sumburgh Cape 02:20ZPartly Cloudy41 30191010.1S 6 3716
Spadeadam02:50ZMist32 3041007.0ENE 5 271066
London City Airport02:20ZClear37 3061012.1ESE 6 3216
Luton Airport 02:20ZClear34 3041010.5SE 9 27524
Tulloch Bridge03:00ZNot Avail.32 29251008.2E 1 32777
Great Dun Fell03:00ZNot Avail.28 2825SSW 19 152778
Kinloss02:50ZMostly Cloudy28 27101007.1ESE 4 2322
Lossiemouth02:50ZClear27 2571007.2SSE 3 2742
Tain Range03:00ZNot Avail.25 24251007.5WSW 5 1913
Cairngorm03:00ZNot Avail.23 2310SW 8 144084
Aviemore03:00ZNot Avail.23 21101008.4WSW 1 23721
Inverness / Dalcross02:20ZNot Avail.23 2161007.1CALM2329
Loch Glascanoch03:00ZClear22 20301008.5NNE 1 22869
Altnaharra03:00ZNot Avail.20 18301008E 2 20265